createdAt,value
2018-06-25T00:00:13.241Z,25.09
2018-06-25T00:01:13.269Z,25.11
2018-06-25T00:02:13.296Z,25.11
2018-06-25T00:03:13.322Z,25.06
2018-06-25T00:04:13.351Z,25.09
2018-06-25T00:05:13.378Z,25.12
2018-06-25T00:06:13.406Z,25.14
2018-06-25T00:07:13.432Z,25.07
2018-06-25T00:08:13.460Z,25.07
2018-06-25T00:09:13.488Z,25.11
2018-06-25T00:10:13.516Z,25.11
2018-06-25T00:11:13.542Z,25.06
2018-06-25T00:12:13.572Z,25.06
2018-06-25T00:13:13.598Z,25.12
2018-06-25T00:14:13.625Z,25.11
2018-06-25T00:15:13.674Z,25.11
2018-06-25T00:16:13.682Z,25.07
2018-06-25T00:17:13.708Z,25.15
2018-06-25T00:18:13.735Z,25.11
2018-06-25T00:19:13.762Z,25.11
2018-06-25T00:20:13.816Z,25.12
2018-06-25T00:21:13.817Z,25.12
2018-06-25T00:22:13.845Z,25.06
2018-06-25T00:23:13.874Z,25.11
2018-06-25T00:24:13.899Z,25.09
2018-06-25T00:25:13.927Z,25.06
2018-06-25T00:26:13.955Z,25.16
2018-06-25T00:27:13.981Z,25.12
2018-06-25T00:28:14.009Z,25.11
2018-06-25T00:29:14.038Z,25.14
2018-06-25T00:30:14.065Z,25.14
2018-06-25T00:31:14.092Z,25.16
2018-06-25T00:32:14.119Z,25.06
2018-06-25T00:33:14.147Z,25.15
2018-06-25T00:34:14.175Z,25.06
2018-06-25T00:35:14.202Z,25.06
2018-06-25T00:36:14.229Z,25.11
2018-06-25T00:37:14.257Z,25.06
2018-06-25T00:38:14.289Z,25.07
2018-06-25T00:39:14.311Z,25.09
2018-06-25T00:40:14.339Z,25.04
2018-06-25T00:41:14.366Z,25.14
2018-06-25T00:42:14.394Z,25.12
2018-06-25T00:43:14.422Z,25.07
2018-06-25T00:44:14.448Z,25.09
2018-06-25T00:45:14.477Z,25.11
2018-06-25T00:46:14.508Z,25.18
2018-06-25T00:47:14.531Z,25.14
2018-06-25T00:48:14.558Z,25.15
2018-06-25T00:49:14.587Z,25.11
2018-06-25T00:50:14.614Z,25.09
2018-06-25T00:51:14.641Z,25.09
2018-06-25T00:52:14.668Z,25.04
2018-06-25T00:53:14.702Z,25.07
2018-06-25T00:54:14.724Z,25.14
2018-06-25T00:55:14.751Z,25.07
2018-06-25T00:56:14.781Z,25.09
2018-06-25T00:57:14.807Z,25.06
2018-06-25T00:58:14.834Z,25.14
2018-06-25T00:59:14.860Z,25.15
2018-06-25T01:00:14.888Z,25.14
2018-06-25T01:01:14.916Z,25.15
2018-06-25T01:02:14.943Z,25.12
2018-06-25T01:03:14.972Z,25.09
2018-06-25T01:04:14.998Z,25.15
2018-06-25T01:05:15.026Z,25.15
2018-06-25T01:06:15.053Z,25.12
2018-06-25T01:07:15.080Z,25.16
2018-06-25T01:08:15.109Z,25.09
2018-06-25T01:09:15.136Z,25.07
2018-06-25T01:10:15.163Z,25.07
2018-06-25T01:11:15.190Z,25.07
2018-06-25T01:12:15.218Z,25.07
2018-06-25T01:13:15.246Z,25.15
2018-06-25T01:14:15.279Z,25.04
2018-06-25T01:15:15.301Z,25.14
2018-06-25T01:16:15.328Z,25.12
2018-06-25T01:17:15.355Z,25.11
2018-06-25T01:18:15.383Z,25.14
2018-06-25T01:19:15.410Z,25.04
2018-06-25T01:20:15.437Z,25.15
2018-06-25T01:21:15.466Z,25.07
2018-06-25T01:22:15.493Z,25.04
2018-06-25T01:23:15.521Z,25.11
2018-06-25T01:24:15.548Z,25.06
2018-06-25T01:25:15.632Z,25.11
2018-06-25T01:26:15.603Z,25.03
2018-06-25T01:27:15.630Z,25.07
2018-06-25T01:28:15.657Z,25.16
2018-06-25T01:29:15.685Z,25.04
2018-06-25T01:30:15.753Z,25.07
2018-06-25T01:31:15.740Z,25.07
2018-06-25T01:32:15.768Z,25.04
2018-06-25T01:33:15.797Z,25.06
2018-06-25T01:34:15.823Z,25.01
2018-06-25T01:35:15.851Z,25.06
2018-06-25T01:36:15.881Z,25.09
2018-06-25T01:37:15.904Z,25.14
2018-06-25T01:38:15.957Z,25.09
2018-06-25T01:39:15.958Z,25.07
2018-06-25T01:40:15.987Z,25.14
2018-06-25T01:41:16.015Z,25.07
2018-06-25T01:42:16.044Z,25.06
2018-06-25T01:43:16.069Z,25.15
2018-06-25T01:44:16.096Z,25.11
2018-06-25T01:45:16.125Z,25.12
2018-06-25T01:46:16.152Z,25.06
2018-06-25T01:47:16.179Z,25.06
2018-06-25T01:48:16.208Z,25.04
2018-06-25T01:49:16.234Z,25.06
2018-06-25T01:50:16.262Z,25.14
2018-06-25T01:51:16.289Z,25.07
2018-06-25T01:52:16.317Z,25.12
2018-06-25T01:53:16.358Z,25.06
2018-06-25T01:54:16.384Z,25.09
2018-06-25T01:55:16.398Z,25.00
2018-06-25T01:56:16.426Z,25.07
2018-06-25T01:57:16.454Z,25.01
2018-06-25T01:58:16.482Z,25.00
2018-06-25T01:59:16.508Z,25.03
2018-06-25T02:00:16.536Z,25.03
2018-06-25T02:01:16.564Z,25.07
2018-06-25T02:02:16.635Z,25.03
2018-06-25T02:03:16.618Z,25.06
2018-06-25T02:04:16.649Z,25.12
2018-06-25T02:05:16.674Z,24.99
2018-06-25T02:06:16.704Z,24.97
2018-06-25T02:07:16.729Z,24.99
2018-06-25T02:08:16.757Z,25.00
2018-06-25T02:09:16.789Z,25.07
2018-06-25T02:10:16.811Z,25.01
2018-06-25T02:11:16.838Z,25.04
2018-06-25T02:12:16.866Z,25.03
2018-06-25T02:13:16.893Z,25.07
2018-06-25T02:14:16.921Z,25.04
2018-06-25T02:15:16.948Z,25.04
2018-06-25T02:16:16.976Z,25.04
2018-06-25T02:17:17.003Z,25.11
2018-06-25T02:18:17.031Z,25.07
2018-06-25T02:19:17.058Z,25.11
2018-06-25T02:20:17.086Z,25.01
2018-06-25T02:21:17.114Z,25.01
2018-06-25T02:22:17.141Z,25.14
2018-06-25T02:23:17.168Z,24.99
2018-06-25T02:24:17.226Z,25.03
2018-06-25T02:25:17.223Z,25.04
2018-06-25T02:26:17.262Z,24.99
2018-06-25T02:27:17.277Z,25.14
2018-06-25T02:28:17.305Z,25.11
2018-06-25T02:29:17.333Z,25.11
2018-06-25T02:30:17.363Z,25.09
2018-06-25T02:31:17.387Z,25.11
2018-06-25T02:32:17.414Z,25.07
2018-06-25T02:33:17.444Z,25.14
2018-06-25T02:34:17.471Z,25.14
2018-06-25T02:35:17.499Z,25.07
2018-06-25T02:36:17.525Z,25.06
2018-06-25T02:37:17.559Z,25.09
2018-06-25T02:38:17.580Z,25.15
2018-06-25T02:39:17.607Z,25.09
2018-06-25T02:40:17.634Z,25.15
2018-06-25T02:41:17.662Z,25.04
2018-06-25T02:42:17.689Z,25.06
2018-06-25T02:43:17.717Z,25.07
2018-06-25T02:44:17.744Z,25.09
2018-06-25T02:45:17.772Z,25.07
2018-06-25T02:46:17.800Z,25.07
2018-06-25T02:47:17.828Z,25.06
2018-06-25T02:48:17.854Z,25.14
2018-06-25T02:49:17.883Z,25.15
2018-06-25T02:50:17.935Z,25.09
2018-06-25T02:51:17.935Z,25.12
2018-06-25T02:52:18.003Z,25.09
2018-06-25T02:53:17.991Z,25.11
2018-06-25T02:54:18.019Z,25.04
2018-06-25T02:55:18.050Z,25.04
2018-06-25T02:56:18.074Z,25.06
2018-06-25T02:57:18.101Z,25.15
2018-06-25T02:58:18.144Z,25.14
2018-06-25T02:59:18.251Z,25.14
2018-06-25T03:00:18.183Z,25.06
2018-06-25T03:01:18.211Z,25.15
2018-06-25T03:02:18.242Z,25.11
2018-06-25T03:03:18.299Z,25.09
2018-06-25T03:04:18.293Z,25.11
2018-06-25T03:05:18.323Z,25.11
2018-06-25T03:06:18.349Z,25.16
2018-06-25T03:07:18.405Z,25.11
2018-06-25T03:08:18.402Z,25.11
2018-06-25T03:09:18.431Z,25.11
2018-06-25T03:10:18.459Z,25.12
2018-06-25T03:11:18.485Z,25.14
2018-06-25T03:12:18.514Z,25.15
2018-06-25T03:13:18.540Z,25.12
2018-06-25T03:14:18.568Z,25.15
2018-06-25T03:15:18.595Z,25.07
2018-06-25T03:16:18.622Z,25.09
2018-06-25T03:17:18.650Z,25.09
2018-06-25T03:18:18.678Z,25.01
2018-06-25T03:19:18.704Z,25.01
2018-06-25T03:20:18.732Z,25.00
2018-06-25T03:21:18.760Z,25.11
2018-06-25T03:22:18.789Z,25.06
2018-06-25T03:23:18.814Z,24.97
2018-06-25T03:24:18.842Z,25.01
2018-06-25T03:25:18.869Z,25.03
2018-06-25T03:26:18.898Z,24.97
2018-06-25T03:27:18.924Z,25.06
2018-06-25T03:28:18.951Z,24.99
2018-06-25T03:29:18.979Z,24.99
2018-06-25T03:30:19.008Z,24.97
2018-06-25T03:31:19.063Z,25.04
2018-06-25T03:32:19.062Z,25.03
2018-06-25T03:33:19.125Z,25.01
2018-06-25T03:34:19.117Z,25.01
2018-06-25T03:35:19.143Z,25.00
2018-06-25T03:36:19.171Z,25.00
2018-06-25T03:37:19.199Z,25.01
2018-06-25T03:38:19.267Z,25.01
2018-06-25T03:39:19.253Z,25.04
2018-06-25T03:40:19.281Z,24.99
2018-06-25T03:41:19.311Z,25.00
2018-06-25T03:42:19.374Z,24.99
2018-06-25T03:43:19.422Z,24.99
2018-06-25T03:44:19.391Z,25.04
2018-06-25T03:45:19.419Z,25.07
2018-06-25T03:46:19.447Z,25.03
2018-06-25T03:47:19.474Z,25.12
2018-06-25T03:48:19.501Z,25.16
2018-06-25T03:49:19.528Z,25.04
2018-06-25T03:50:19.568Z,25.03
2018-06-25T03:51:19.582Z,25.21
2018-06-25T03:52:19.610Z,25.12
2018-06-25T03:53:19.639Z,25.16
2018-06-25T03:54:19.666Z,25.12
2018-06-25T03:55:19.692Z,25.12
2018-06-25T03:56:19.720Z,25.16
2018-06-25T03:57:19.790Z,25.09
2018-06-25T03:58:19.776Z,25.12
2018-06-25T03:59:19.802Z,25.15
2018-06-25T04:00:19.830Z,25.12
2018-06-25T04:01:19.858Z,25.14
2018-06-25T04:02:19.886Z,25.11
2018-06-25T04:03:19.912Z,25.21
2018-06-25T04:04:19.940Z,25.15
2018-06-25T04:05:20.003Z,25.21
2018-06-25T04:06:19.995Z,25.15
2018-06-25T04:07:20.024Z,25.22
2018-06-25T04:08:20.050Z,25.21
2018-06-25T04:09:20.100Z,25.16
2018-06-25T04:10:20.141Z,25.18
2018-06-25T04:11:20.134Z,25.24
2018-06-25T04:12:20.159Z,25.19
2018-06-25T04:13:20.187Z,25.22
2018-06-25T04:14:20.215Z,25.25
2018-06-25T04:15:20.241Z,25.11
2018-06-25T04:16:20.269Z,25.15
2018-06-25T04:17:20.297Z,25.11
2018-06-25T04:18:20.329Z,25.14
2018-06-25T04:19:20.352Z,25.12
2018-06-25T04:20:20.380Z,25.15
2018-06-25T04:21:20.407Z,25.15
2018-06-25T04:22:20.436Z,25.24
2018-06-25T04:23:20.461Z,25.18
2018-06-25T04:24:20.489Z,25.14
2018-06-25T04:25:20.519Z,25.24
2018-06-25T04:26:20.564Z,25.15
2018-06-25T04:27:20.571Z,25.21
2018-06-25T04:28:20.632Z,25.26
2018-06-25T04:29:20.628Z,25.24
2018-06-25T04:30:20.655Z,25.19
2018-06-25T04:31:20.682Z,25.25
2018-06-25T04:32:20.716Z,25.21
2018-06-25T04:33:20.822Z,25.21
2018-06-25T04:34:20.765Z,25.22
2018-06-25T04:35:20.791Z,25.25
2018-06-25T04:36:20.823Z,25.21
2018-06-25T04:37:20.847Z,25.24
2018-06-25T04:38:20.874Z,25.16
2018-06-25T04:39:29.744Z,25.19
2018-06-25T04:41:13.942Z,25.19
2018-06-25T04:42:13.833Z,25.22
2018-06-25T04:44:06.749Z,25.24
2018-06-25T04:45:06.727Z,25.22
2018-06-25T04:46:59.662Z,25.19
2018-06-25T04:47:59.641Z,25.24
2018-06-25T04:50:05.310Z,25.24
2018-06-25T04:51:05.333Z,25.25
2018-06-25T04:52:58.224Z,25.34
2018-06-25T04:53:58.263Z,25.24
2018-06-25T04:56:03.892Z,25.26
2018-06-25T04:57:03.897Z,25.25
2018-06-25T04:58:56.809Z,25.25
2018-06-25T04:59:56.810Z,25.22
2018-06-25T05:02:02.461Z,25.29
2018-06-25T05:03:02.479Z,25.25
2018-06-25T05:04:55.394Z,25.29
2018-06-25T05:05:55.393Z,25.26
2018-06-25T05:07:50.005Z,25.29
2018-06-25T05:08:50.076Z,25.29
2018-06-25T05:10:55.675Z,25.24
2018-06-25T05:11:55.673Z,25.24
2018-06-25T05:13:48.592Z,25.25
2018-06-25T05:14:48.588Z,25.26
2018-06-25T05:16:54.257Z,25.29
2018-06-25T05:17:54.256Z,25.26
2018-06-25T05:19:48.075Z,25.21
2018-06-25T05:20:48.057Z,25.26
2018-06-25T05:22:40.971Z,25.29
2018-06-25T05:23:41.027Z,25.21
2018-06-25T05:25:46.638Z,25.26
2018-06-25T05:26:46.640Z,25.15
2018-06-25T05:28:41.249Z,25.25
2018-06-25T05:29:41.275Z,25.21
2018-06-25T05:31:35.012Z,25.25
2018-06-25T05:32:35.049Z,25.29
2018-06-25T05:34:40.680Z,25.19
2018-06-25T05:35:40.679Z,25.26
2018-06-25T05:37:34.469Z,25.24
2018-06-25T05:38:34.479Z,25.33
2018-06-25T05:40:40.090Z,25.22
2018-06-25T05:41:40.110Z,25.36
2018-06-25T05:43:33.063Z,25.33
2018-06-25T05:44:33.026Z,25.26
2018-06-25T05:46:26.799Z,25.29
2018-06-25T05:47:26.799Z,25.29
2018-06-25T05:49:32.474Z,25.41
2018-06-25T05:50:32.467Z,25.31
2018-06-25T05:52:25.381Z,25.30
2018-06-25T05:53:25.380Z,25.29
2018-06-25T05:55:32.752Z,25.26
2018-06-25T05:56:32.745Z,25.29
2018-06-25T05:58:25.660Z,25.44
2018-06-25T05:59:25.663Z,25.39
2018-06-25T06:01:18.575Z,25.36
2018-06-25T06:02:18.574Z,25.40
2018-06-25T06:04:11.489Z,25.44
2018-06-25T06:05:11.490Z,25.44
2018-06-25T06:07:04.403Z,25.41
2018-06-25T06:08:04.403Z,25.41
2018-06-25T06:09:57.318Z,25.39
2018-06-25T06:10:57.317Z,25.52
2018-06-25T06:12:51.099Z,25.43
2018-06-25T06:13:51.086Z,25.43
2018-06-25T06:15:57.185Z,25.44
2018-06-25T06:16:57.205Z,25.43
2018-06-25T06:18:50.118Z,25.41
2018-06-25T06:19:50.120Z,25.41
2018-06-25T06:21:43.885Z,25.44
2018-06-25T06:22:43.880Z,25.41
2018-06-25T06:24:49.550Z,25.44
2018-06-25T06:25:49.549Z,25.41
2018-06-25T06:27:42.444Z,25.46
2018-06-25T06:28:42.464Z,25.43
2018-06-25T06:30:49.831Z,25.51
2018-06-25T06:31:49.872Z,25.51
2018-06-25T06:32:49.881Z,25.55
2018-06-25T06:33:49.885Z,25.55
2018-06-25T06:34:49.946Z,25.51
2018-06-25T06:35:49.939Z,25.52
2018-06-25T06:36:49.998Z,25.56
2018-06-25T06:37:49.995Z,25.58
2018-06-25T06:38:50.027Z,25.59
2018-06-25T06:39:50.107Z,25.62
2018-06-25T06:40:50.078Z,25.67
2018-06-25T06:41:50.106Z,25.55
2018-06-25T06:42:50.133Z,25.52
2018-06-25T06:43:50.160Z,25.58
2018-06-25T06:44:50.191Z,25.59
2018-06-25T06:45:50.215Z,25.63
2018-06-25T06:46:50.243Z,25.62
2018-06-25T06:47:50.270Z,25.63
2018-06-25T06:48:50.298Z,25.61
2018-06-25T06:49:50.327Z,25.63
2018-06-25T06:50:50.355Z,25.70
2018-06-25T06:51:50.387Z,25.62
2018-06-25T06:52:50.409Z,25.70
2018-06-25T06:53:50.450Z,25.67
2018-06-25T06:54:50.464Z,25.67
2018-06-25T06:55:50.491Z,25.73
2018-06-25T06:56:50.522Z,25.70
2018-06-25T06:57:50.624Z,25.73
2018-06-25T06:58:50.576Z,25.73
2018-06-25T06:59:50.604Z,25.76
2018-06-25T07:00:50.634Z,25.73
2018-06-25T07:01:50.657Z,25.71
2018-06-25T07:02:50.685Z,25.77
2018-06-25T07:03:50.713Z,25.77
2018-06-25T07:04:50.802Z,25.74
2018-06-25T07:05:50.768Z,25.81
2018-06-25T07:06:50.795Z,25.77
2018-06-25T07:07:50.822Z,25.77
2018-06-25T07:08:50.894Z,25.78
2018-06-25T07:09:50.878Z,25.81
2018-06-25T07:10:50.905Z,25.78
2018-06-25T07:11:50.932Z,25.77
2018-06-25T07:12:50.959Z,25.83
2018-06-25T07:13:50.988Z,25.80
2018-06-25T07:14:51.015Z,25.74
2018-06-25T07:15:51.042Z,25.80
2018-06-25T07:16:51.071Z,25.88
2018-06-25T07:17:51.098Z,25.78
2018-06-25T07:18:51.126Z,25.80
2018-06-25T07:19:51.153Z,25.77
2018-06-25T07:20:51.259Z,25.81
2018-06-25T07:21:51.209Z,25.80
2018-06-25T07:22:51.237Z,25.76
2018-06-25T07:23:51.264Z,25.77
2018-06-25T07:24:51.291Z,25.81
2018-06-25T07:25:51.320Z,25.88
2018-06-25T07:26:51.347Z,25.78
2018-06-25T07:27:51.373Z,25.78
2018-06-25T07:28:51.422Z,25.80
2018-06-25T07:29:51.485Z,25.80
2018-06-25T07:30:51.457Z,25.88
2018-06-25T07:31:51.484Z,25.81
2018-06-25T07:32:51.512Z,25.80
2018-06-25T07:33:51.540Z,25.81
2018-06-25T07:34:51.567Z,25.81
2018-06-25T07:35:51.612Z,25.80
2018-06-25T07:36:51.622Z,25.86
2018-06-25T07:37:51.650Z,25.86
2018-06-25T07:38:51.679Z,25.88
2018-06-25T07:39:51.705Z,25.88
2018-06-25T07:40:51.736Z,25.91
2018-06-25T07:41:51.761Z,25.88
2018-06-25T07:42:51.789Z,25.81
2018-06-25T07:43:51.816Z,25.86
2018-06-25T07:44:51.891Z,25.81
2018-06-25T07:45:51.871Z,25.85
2018-06-25T07:46:51.899Z,25.83
2018-06-25T07:47:51.926Z,25.93
2018-06-25T07:48:51.954Z,25.86
2018-06-25T07:49:51.982Z,25.83
2018-06-25T07:50:52.017Z,25.83
2018-06-25T07:51:52.037Z,25.85
2018-06-25T07:52:52.067Z,25.83
2018-06-25T07:53:52.095Z,25.78
2018-06-25T07:54:52.121Z,25.93
2018-06-25T07:55:52.148Z,25.83
2018-06-25T07:56:52.175Z,25.78
2018-06-25T07:57:52.239Z,25.80
2018-06-25T07:58:52.266Z,25.89
2018-06-25T07:59:52.258Z,25.88
2018-06-25T08:00:52.286Z,25.81
2018-06-25T08:01:52.314Z,25.88
2018-06-25T08:02:52.345Z,25.85
2018-06-25T08:03:52.368Z,25.85
2018-06-25T08:04:52.396Z,25.88
2018-06-25T08:05:52.424Z,25.92
2018-06-25T08:06:52.452Z,25.81
2018-06-25T08:07:52.480Z,25.85
2018-06-25T08:08:52.507Z,25.81
2018-06-25T08:09:52.589Z,25.93
2018-06-25T08:10:52.563Z,25.86
2018-06-25T08:11:52.590Z,25.93
2018-06-25T08:12:52.617Z,25.89
2018-06-25T08:13:52.645Z,25.89
2018-06-25T08:14:52.676Z,25.91
2018-06-25T08:15:52.701Z,25.91
2018-06-25T08:16:52.728Z,25.81
2018-06-25T08:17:52.759Z,25.93
2018-06-25T08:18:52.784Z,25.93
2018-06-25T08:19:52.811Z,25.85
2018-06-25T08:20:52.867Z,25.88
2018-06-25T08:21:52.869Z,25.85
2018-06-25T08:22:52.934Z,25.89
2018-06-25T08:23:52.921Z,25.88
2018-06-25T08:24:52.948Z,25.81
2018-06-25T08:25:52.977Z,25.81
2018-06-25T08:26:53.005Z,25.89
2018-06-25T08:27:53.033Z,25.83
2018-06-25T08:28:53.060Z,25.81
2018-06-25T08:29:53.164Z,25.81
2018-06-25T08:30:53.116Z,25.86
2018-06-25T08:31:53.142Z,25.85
2018-06-25T08:32:53.170Z,25.88
2018-06-25T08:33:53.218Z,25.92
2018-06-25T08:34:53.226Z,25.91
2018-06-25T08:35:53.253Z,25.92
2018-06-25T08:36:53.379Z,25.86
2018-06-25T08:37:53.308Z,25.91
2018-06-25T08:38:53.337Z,25.80
2018-06-25T08:39:53.364Z,25.89
2018-06-25T08:40:53.393Z,25.91
2018-06-25T08:41:53.426Z,25.88
2018-06-25T08:42:53.447Z,25.92
2018-06-25T08:43:53.473Z,25.89
2018-06-25T08:44:53.505Z,25.83
2018-06-25T08:45:53.568Z,25.89
2018-06-25T08:46:53.558Z,25.98
2018-06-25T08:47:53.586Z,25.86
2018-06-25T08:48:53.612Z,25.88
2018-06-25T08:49:53.641Z,25.91
2018-06-25T08:50:53.669Z,25.86
2018-06-25T08:51:53.706Z,25.92
2018-06-25T08:52:53.723Z,25.88
2018-06-25T08:53:53.754Z,25.92
2018-06-25T08:54:53.780Z,25.89
2018-06-25T08:55:53.810Z,25.86
2018-06-25T08:56:53.848Z,25.86
2018-06-25T08:57:53.866Z,25.91
2018-06-25T08:58:53.901Z,25.89
2018-06-25T08:59:53.917Z,25.86
2018-06-25T09:00:53.945Z,25.85
2018-06-25T09:01:53.973Z,25.96
2018-06-25T09:02:54.001Z,25.91
2018-06-25T09:03:54.028Z,25.85
2018-06-25T09:04:54.056Z,25.92
2018-06-25T09:05:54.093Z,25.96
2018-06-25T09:06:54.130Z,25.88
2018-06-25T09:07:54.172Z,25.98
2018-06-25T09:08:54.167Z,25.92
2018-06-25T09:09:54.287Z,25.92
2018-06-25T09:10:54.228Z,25.81
2018-06-25T09:11:54.249Z,25.92
2018-06-25T09:12:54.277Z,25.88
2018-06-25T09:13:54.306Z,25.91
2018-06-25T09:14:54.333Z,25.92
2018-06-25T09:15:54.361Z,25.91
2018-06-25T09:16:54.389Z,25.91
2018-06-25T09:17:54.417Z,25.91
2018-06-25T09:18:54.446Z,25.89
2018-06-25T09:19:54.474Z,25.93
2018-06-25T09:20:54.499Z,25.89
2018-06-25T09:21:54.529Z,25.83
2018-06-25T09:22:54.558Z,25.95
2018-06-25T09:23:54.585Z,25.85
2018-06-25T09:24:54.610Z,25.89
2018-06-25T09:25:54.638Z,25.88
2018-06-25T09:26:54.670Z,25.81
2018-06-25T09:27:54.718Z,25.92
2018-06-25T09:28:54.724Z,25.86
2018-06-25T09:29:54.748Z,25.83
2018-06-25T09:30:54.779Z,25.92
2018-06-25T09:31:54.805Z,25.89
2018-06-25T09:32:54.848Z,25.95
2018-06-25T09:33:54.860Z,25.85
2018-06-25T09:34:54.887Z,25.89
2018-06-25T09:35:54.923Z,25.92
2018-06-25T09:36:54.942Z,25.99
2018-06-25T09:37:54.972Z,25.88
2018-06-25T09:38:54.998Z,25.88
2018-06-25T09:39:55.026Z,25.91
2018-06-25T09:40:55.109Z,25.91
2018-06-25T09:41:55.082Z,25.89
2018-06-25T09:42:55.109Z,25.98
2018-06-25T09:43:55.137Z,25.89
2018-06-25T09:44:55.165Z,25.89
2018-06-25T09:45:55.228Z,25.91
2018-06-25T09:46:55.224Z,25.91
2018-06-25T09:47:55.247Z,25.99
2018-06-25T09:48:55.307Z,25.85
2018-06-25T09:49:55.308Z,25.93
2018-06-25T09:50:55.331Z,25.93
2018-06-25T09:51:55.357Z,25.93
2018-06-25T09:52:55.386Z,25.95
2018-06-25T09:53:55.413Z,25.96
2018-06-25T09:54:55.474Z,25.91
2018-06-25T09:55:55.514Z,25.92
2018-06-25T09:56:55.496Z,25.95
2018-06-25T09:57:55.524Z,25.93
2018-06-25T09:58:55.580Z,25.93
2018-06-25T09:59:55.580Z,25.88
2018-06-25T10:00:55.607Z,25.95
2018-06-25T10:01:55.635Z,25.91
2018-06-25T10:02:55.664Z,25.91
2018-06-25T10:03:55.691Z,25.91
2018-06-25T10:04:55.718Z,25.92
2018-06-25T10:05:55.749Z,25.91
2018-06-25T10:06:55.775Z,25.89
2018-06-25T10:07:55.801Z,25.89
2018-06-25T10:08:55.852Z,25.93
2018-06-25T10:09:55.857Z,25.91
2018-06-25T10:10:55.887Z,25.91
2018-06-25T10:11:55.913Z,25.93
2018-06-25T10:12:55.940Z,25.88
2018-06-25T10:13:55.978Z,25.95
2018-06-25T10:14:55.995Z,25.91
2018-06-25T10:15:56.023Z,25.91
2018-06-25T10:16:56.052Z,25.99
2018-06-25T10:17:56.081Z,25.92
2018-06-25T10:18:56.111Z,25.96
2018-06-25T10:19:56.135Z,25.96
2018-06-25T10:20:56.161Z,25.91
2018-06-25T10:21:56.192Z,25.86
2018-06-25T10:22:56.220Z,25.98
2018-06-25T10:23:56.244Z,26.01
2018-06-25T10:24:56.272Z,25.93
2018-06-25T10:25:56.329Z,25.95
2018-06-25T10:26:56.332Z,25.91
2018-06-25T10:27:56.355Z,25.92
2018-06-25T10:28:56.384Z,26.01
2018-06-25T10:29:56.412Z,26.04
2018-06-25T10:30:56.439Z,26.03
2018-06-25T10:31:56.466Z,25.99
2018-06-25T10:32:56.494Z,25.93
2018-06-25T10:33:56.522Z,25.96
2018-06-25T10:34:56.551Z,26.04
2018-06-25T10:35:56.580Z,25.98
2018-06-25T10:36:56.642Z,25.99
2018-06-25T10:37:56.636Z,25.96
2018-06-25T10:38:56.665Z,25.95
2018-06-25T10:39:56.688Z,25.95
2018-06-25T10:40:56.724Z,25.98
2018-06-25T10:41:56.781Z,26.01
2018-06-25T10:42:56.809Z,26.07
2018-06-25T10:43:56.799Z,26.04
2018-06-25T10:44:56.827Z,26.04
2018-06-25T10:45:56.855Z,26.06
2018-06-25T10:46:56.883Z,25.95
2018-06-25T10:47:56.910Z,25.99
2018-06-25T10:48:56.938Z,26.04
2018-06-25T10:49:56.966Z,25.95
2018-06-25T10:50:56.994Z,26.04
2018-06-25T10:51:57.021Z,26.07
2018-06-25T10:52:57.050Z,26.06
2018-06-25T10:53:57.077Z,26.06
2018-06-25T10:54:57.108Z,26.10
2018-06-25T10:55:57.132Z,26.10
2018-06-25T10:56:57.160Z,26.04
2018-06-25T10:57:57.188Z,26.04
2018-06-25T10:58:57.216Z,25.95
2018-06-25T10:59:57.461Z,25.98
2018-06-25T11:00:57.272Z,25.99
2018-06-25T11:01:57.328Z,26.06
2018-06-25T11:02:57.327Z,26.04
2018-06-25T11:03:57.355Z,26.01
2018-06-25T11:04:57.382Z,26.04
2018-06-25T11:05:57.472Z,25.93
2018-06-25T11:06:57.439Z,26.01
2018-06-25T11:07:57.466Z,25.99
2018-06-25T11:08:57.499Z,26.04
2018-06-25T11:09:57.552Z,26.01
2018-06-25T11:10:57.549Z,26.03
2018-06-25T11:11:57.579Z,25.95
2018-06-25T11:12:57.655Z,26.03
2018-06-25T11:13:57.632Z,25.99
2018-06-25T11:14:57.661Z,26.04
2018-06-25T11:15:57.687Z,25.99
2018-06-25T11:16:57.716Z,26.07
2018-06-25T11:17:57.744Z,25.99
2018-06-25T11:18:57.771Z,26.03
2018-06-25T11:19:57.818Z,26.04
2018-06-25T11:20:57.852Z,26.01
2018-06-25T11:21:57.861Z,26.04
2018-06-25T11:22:57.883Z,26.01
2018-06-25T11:23:57.909Z,25.98
2018-06-25T11:24:57.945Z,26.01
2018-06-25T11:25:57.990Z,26.01
2018-06-25T11:26:58.169Z,25.98
2018-06-25T11:27:58.021Z,25.99
2018-06-25T11:28:58.048Z,26.01
2018-06-25T11:29:58.077Z,26.04
2018-06-25T11:30:58.105Z,25.96
2018-06-25T11:31:58.131Z,26.04
2018-06-25T11:32:58.160Z,26.04
2018-06-25T11:33:58.189Z,25.96
2018-06-25T11:34:58.216Z,25.95
2018-06-25T11:35:58.243Z,25.93
2018-06-25T11:36:58.297Z,26.03
2018-06-25T11:37:58.300Z,25.96
2018-06-25T11:38:58.328Z,26.03
2018-06-25T11:39:58.355Z,25.98
2018-06-25T11:40:58.382Z,25.99
2018-06-25T11:41:58.412Z,25.96
2018-06-25T11:42:58.438Z,25.95
2018-06-25T11:43:58.466Z,25.92
2018-06-25T11:44:58.497Z,25.98
2018-06-25T11:45:58.521Z,26.01
2018-06-25T11:46:58.554Z,25.91
2018-06-25T11:47:58.576Z,25.99
2018-06-25T11:48:58.604Z,25.93
2018-06-25T11:49:58.632Z,25.98
2018-06-25T11:50:58.660Z,25.92
2018-06-25T11:51:58.706Z,25.96
2018-06-25T11:52:58.716Z,25.98
2018-06-25T11:53:58.743Z,25.98
2018-06-25T11:54:58.770Z,25.91
2018-06-25T11:55:58.800Z,26.01
2018-06-25T11:56:58.842Z,25.98
2018-06-25T11:57:58.854Z,25.92
2018-06-25T11:58:58.882Z,25.96
2018-06-25T11:59:58.914Z,25.93
2018-06-25T12:00:58.937Z,25.93
2018-06-25T12:01:58.989Z,25.98
2018-06-25T12:02:59.111Z,25.92
2018-06-25T12:03:59.020Z,25.96
2018-06-25T12:04:59.056Z,25.91
2018-06-25T12:05:59.076Z,26.01
2018-06-25T12:06:59.105Z,25.98
2018-06-25T12:07:59.130Z,25.95
2018-06-25T12:08:59.159Z,25.99
2018-06-25T12:09:59.187Z,25.95
2018-06-25T12:10:59.215Z,25.95
2018-06-25T12:11:59.242Z,25.93
2018-06-25T12:12:59.270Z,25.95
2018-06-25T12:13:59.300Z,25.99
2018-06-25T12:14:59.327Z,25.95
2018-06-25T12:15:59.380Z,25.93
2018-06-25T12:16:59.381Z,26.04
2018-06-25T12:17:59.438Z,25.98
2018-06-25T12:18:59.442Z,25.98
2018-06-25T12:19:59.478Z,25.98
2018-06-25T12:20:59.543Z,26.10
2018-06-25T12:21:59.539Z,25.99
2018-06-25T12:22:59.565Z,25.96
2018-06-25T12:23:59.575Z,25.92
2018-06-25T12:24:59.604Z,26.01
2018-06-25T12:25:59.631Z,26.01
2018-06-25T12:26:59.661Z,25.96
2018-06-25T12:27:59.687Z,25.98
2018-06-25T12:28:59.714Z,26.04
2018-06-25T12:29:59.775Z,25.98
2018-06-25T12:30:59.774Z,25.98
2018-06-25T12:31:59.827Z,25.99
2018-06-25T12:32:59.829Z,25.99
2018-06-25T12:33:59.857Z,25.93
2018-06-25T12:34:59.937Z,25.99
2018-06-25T12:35:59.910Z,26.04
2018-06-25T12:36:59.937Z,25.99
2018-06-25T12:38:00.000Z,25.95
2018-06-25T12:38:59.993Z,25.96
2018-06-25T12:40:00.026Z,26.03
2018-06-25T12:41:00.050Z,26.01
2018-06-25T12:42:00.076Z,25.98
2018-06-25T12:43:00.121Z,25.99
2018-06-25T12:44:00.136Z,25.96
2018-06-25T12:45:00.169Z,25.95
2018-06-25T12:46:00.193Z,25.95
2018-06-25T12:47:00.244Z,25.99
2018-06-25T12:48:00.241Z,25.98
2018-06-25T12:49:00.269Z,26.03
2018-06-25T12:50:00.300Z,25.95
2018-06-25T12:51:00.347Z,26.01
2018-06-25T12:52:00.355Z,25.95
2018-06-25T12:53:00.380Z,26.01
2018-06-25T12:54:00.541Z,25.95
2018-06-25T12:55:00.462Z,25.92
2018-06-25T12:56:00.467Z,26.07
2018-06-25T12:57:00.547Z,25.92
2018-06-25T12:58:00.520Z,25.98
2018-06-25T12:59:00.548Z,26.06
2018-06-25T13:00:00.575Z,25.98
2018-06-25T13:01:00.606Z,25.95
2018-06-25T13:02:00.631Z,25.99
2018-06-25T13:03:00.659Z,26.03
2018-06-25T13:04:00.692Z,25.92
2018-06-25T13:05:00.717Z,25.95
2018-06-25T13:06:00.742Z,26.06
2018-06-25T13:07:00.770Z,25.98
2018-06-25T13:08:00.797Z,25.92
2018-06-25T13:09:00.898Z,25.96
2018-06-25T13:10:00.894Z,25.92
2018-06-25T13:11:00.882Z,25.98
2018-06-25T13:12:00.909Z,25.95
2018-06-25T13:13:00.937Z,25.92
2018-06-25T13:14:00.974Z,25.92
2018-06-25T13:15:01.077Z,25.98
2018-06-25T13:16:01.019Z,25.96
2018-06-25T13:17:01.048Z,25.92
2018-06-25T13:18:01.075Z,25.96
2018-06-25T13:19:01.106Z,25.95
2018-06-25T13:20:01.132Z,25.92
2018-06-25T13:21:01.216Z,25.98
2018-06-25T13:22:01.187Z,25.92
2018-06-25T13:23:01.215Z,25.96
2018-06-25T13:24:01.242Z,25.93
2018-06-25T13:25:01.271Z,26.03
2018-06-25T13:26:01.304Z,25.92
2018-06-25T13:27:01.327Z,25.99
2018-06-25T13:28:01.353Z,26.01
2018-06-25T13:29:01.409Z,25.91